Flight Number: EUR1131 Duration: 1:10
Departure: Gatwick Airport (EGKK) at 07:50 Distance: 370 Nm
Arrival: Basel-Mulhouse (LFSB) at 09:00 Equipment: A321

Weather Information
London / Gatwick Airport, United Kingdom (EGKK) 51-09N 000-11W 0M Feb 19, 2018 - 02:20 AM EST / 2018.02.19 0720 UTC
Wind: from the SW (220 degrees) at 3 MPH (3 KT):0
Visibility: 1 mile(s):0
Sky conditions: overcast Weather: light drizzle Temperature: 44 F (7 C) Dew Point: 44 F (7 C) Relative Humidity: 100% Pressure (altimeter): 30.03 in. Hg (1017 hPa)
ob: EGKK 190720Z 22003KT 3000 -DZ BKN004 OVC021 07/07 Q1017 cycle: 7
Sunrise: 07:08 Sunset: 17:20 (UTC)

Bale-Mulhouse, France (LFSB) 47-36N 007-31E 271M Feb 19, 2018 - 02:30 AM EST / 2018.02.19 0730 UTC
Wind: from the NW (310 degrees) at 5 MPH (4 KT):0
Visibility: 1 mile(s):0
Sky conditions: overcast Weather: mist Temperature: 32 F (0 C)
Windchill: 26 F (-3 C):1 Dew Point: 30 F (-1 C) Relative Humidity: 92% Pressure (altimeter): 30.09 in. Hg (1019 hPa)
ob: LFSB 190730Z 31004KT 2500 BR FEW003 BKN004 OVC031 00/M01 Q1019 TEMPO OVC003 cycle: 7
Sunrise: 06:31 Sunset: 16:56 (UTC)

TAF:2018/02/19 06:21 TAF TAF LFSB 190500Z 1906/2006 32003KT 3000 BR BKN005 BKN030 TEMPO 1906/1908 1500 OVC002 BECMG 1908/1911 6000 NSW SCT008 BKN180 BECMG 1918/1921 BKN025 OVC100 PROB40 TEMPO 2003/2006 4000 BR BKN004

Previous Pireps for this route
Date Aircraft Flight time Fuel used Landing rate On time
2012-11-13B73701.3013217-102Yes
2012-11-21A32101.207933-388No
2013-01-06B73701.236734-271Yes
2013-01-14B73701.277657-204Yes
2013-02-03B73701.207604-226No
2013-06-09B73701.046400-368No
2013-07-10B73701.188800-145No
2013-07-28B73701.3112913-567No
2013-10-09A3211.16100500No
2013-10-15B7371.1575000No
2014-02-10B73701.4411685-131No
2014-05-14A32101.228153-291Yes
2014-08-14B73701.208225-175No
2014-11-17B73701.237853-96No
2015-03-10A32101.19-1039-238Yes
2015-04-06B73702.0213553-241No
2015-04-22CRJ7001.0438770Charter
2015-05-25A32101.439503-129Yes
2015-05-26A32101.369336-219Yes
2015-07-20A32101.287930-134Yes
2016-02-28CRJ70001.116247-175Charter
2016-07-11A3211.158127-699No
(pireps marked green are flown by you)

Route map